Time;durP1;ratioP1;P1;durP2;ratioP2;P2;SDS_P1;SDS_P2;PMS_P1;PMS_P2;Temp;Humidity;BMP_temperature;BMP_pressure;BME280_temperature;BME280_humidity;BME280_pressure;Samples;Min_cycle;Max_cycle;Signal;HPM_P1;HPM_P2
2021/07/24 00:02:04;;;;;;;13.48;11.82;;;14.50;99.90;;;;;;5072480;28;20040;-62
2021/07/24 00:04:30;;;;;;;12.18;10.90;;;14.50;99.90;;;;;;5073483;28;20394;-62
2021/07/24 00:06:59;;;;;;;14.25;11.90;;;14.50;99.90;;;;;;5073903;28;20097;-62
2021/07/24 00:09:24;;;;;;;18.83;13.32;;;14.40;99.90;;;;;;5073530;28;20040;-62
2021/07/24 00:11:50;;;;;;;15.45;12.52;;;14.30;99.90;;;;;;5062519;28;20390;-62
2021/07/24 00:14:15;;;;;;;13.10;11.45;;;14.20;99.90;;;;;;5053843;28;20041;-62
2021/07/24 00:16:41;;;;;;;16.17;12.90;;;14.20;99.90;;;;;;5073675;28;20044;-62
2021/07/24 00:19:07;;;;;;;16.65;11.43;;;14.10;99.90;;;;;;5073704;28;20028;-62
2021/07/24 00:21:32;;;;;;;13.70;11.77;;;14.20;99.90;;;;;;5072060;28;20119;-62
2021/07/24 00:23:58;;;;;;;12.73;11.43;;;14.20;99.90;;;;;;5073616;28;20056;-62
2021/07/24 00:26:23;;;;;;;13.85;11.40;;;14.20;99.90;;;;;;5073349;28;20083;-62
2021/07/24 00:28:49;;;;;;;14.45;12.30;;;14.20;99.90;;;;;;5073502;28;20048;-62
2021/07/24 00:31:16;;;;;;;14.02;11.80;;;14.20;99.90;;;;;;5072455;28;20904;-62
2021/07/24 00:33:41;;;;;;;14.57;11.82;;;14.20;99.90;;;;;;5072970;28;20084;-62
2021/07/24 00:36:07;;;;;;;14.23;12.15;;;14.20;99.90;;;;;;5072970;28;20117;-62
2021/07/24 00:38:34;;;;;;;13.85;11.95;;;14.20;99.90;;;;;;5062735;28;20049;-62
2021/07/24 00:41:04;;;;;;;15.20;12.93;;;14.10;99.90;;;;;;5065117;28;20037;-62
2021/07/24 00:43:34;;;;;;;16.00;12.93;;;14.10;99.90;;;;;;5073454;28;20048;-62
2021/07/24 00:46:02;;;;;;;15.48;12.57;;;14.10;99.90;;;;;;5072993;28;20086;-62
2021/07/24 00:48:29;;;;;;;14.50;12.32;;;14.00;99.90;;;;;;5073145;28;20041;-62
2021/07/24 00:50:57;;;;;;;15.05;12.35;;;14.00;99.90;;;;;;5072850;28;20068;-62
2021/07/24 00:53:24;;;;;;;18.15;14.40;;;14.00;99.90;;;;;;5072837;28;20040;-62
2021/07/24 00:55:51;;;;;;;15.75;12.93;;;14.00;99.90;;;;;;5070916;28;20045;-62
2021/07/24 00:58:28;;;;;;;18.05;13.88;;;13.90;99.90;;;;;;5072933;28;20044;-62
2021/07/24 01:00:55;;;;;;;18.17;14.48;;;13.90;99.90;;;;;;5072657;28;20035;-62
2021/07/24 01:03:21;;;;;;;18.73;14.45;;;13.90;99.90;;;;;;5072846;28;20234;-62
2021/07/24 01:05:51;;;;;;;19.05;13.93;;;13.80;99.90;;;;;;5072579;28;20098;-62
2021/07/24 01:08:17;;;;;;;15.35;13.57;;;13.80;99.90;;;;;;5072308;28;20035;-62
2021/07/24 01:10:44;;;;;;;16.08;13.70;;;13.80;99.90;;;;;;5071278;28;20070;-62
2021/07/24 01:13:09;;;;;;;17.70;14.35;;;13.80;99.90;;;;;;5072456;28;20068;-62
2021/07/24 01:15:35;;;;;;;16.75;14.05;;;13.80;99.90;;;;;;5072340;28;20452;-62
2021/07/24 01:18:01;;;;;;;15.88;12.77;;;13.80;99.90;;;;;;5072373;28;20067;-62
2021/07/24 01:20:27;;;;;;;18.92;15.00;;;13.80;99.90;;;;;;5072125;28;20039;-62
2021/07/24 01:22:55;;;;;;;17.17;13.73;;;13.80;99.90;;;;;;5072493;28;20458;-62
2021/07/24 01:25:21;;;;;;;17.38;14.25;;;13.80;99.90;;;;;;5072014;28;20377;-62
2021/07/24 01:27:47;;;;;;;18.77;15.15;;;13.80;99.90;;;;;;5070853;28;20032;-62
2021/07/24 01:30:13;;;;;;;19.60;15.52;;;13.80;99.90;;;;;;5072269;28;20444;-62
2021/07/24 01:32:39;;;;;;;19.45;14.32;;;13.80;99.90;;;;;;5071560;28;20059;-62
2021/07/24 01:35:06;;;;;;;18.95;15.02;;;13.70;99.90;;;;;;5071976;28;20040;-62
2021/07/24 01:37:31;;;;;;;24.85;17.60;;;13.70;99.90;;;;;;5070387;28;20048;-62
2021/07/24 01:39:58;;;;;;;20.30;16.17;;;13.60;99.90;;;;;;5072138;28;20110;-62
2021/07/24 01:42:23;;;;;;;20.20;15.30;;;13.70;99.90;;;;;;5069164;28;20465;-62
2021/07/24 01:44:49;;;;;;;19.40;15.35;;;13.60;99.90;;;;;;5071359;28;20083;-62
2021/07/24 01:47:14;;;;;;;21.85;16.42;;;13.60;99.90;;;;;;5067878;28;20432;-62
2021/07/24 01:52:48;;;;;;;21.65;16.27;;;13.50;99.90;;;;;;5071545;28;20037;-62
2021/07/24 01:55:26;;;;;;;25.17;18.13;;;13.50;99.90;;;;;;5070017;28;20072;-62
2021/07/24 01:57:53;;;;;;;23.92;18.15;;;13.50;99.90;;;;;;5071615;28;20044;-62
2021/07/24 02:00:19;;;;;;;23.80;16.15;;;13.40;99.90;;;;;;5071690;28;20162;-62
2021/07/24 02:02:48;;;;;;;20.50;16.35;;;13.40;99.90;;;;;;5068027;28;20036;-62
2021/07/24 02:05:48;;;;;;;23.23;17.13;;;13.40;99.90;;;;;;5051657;28;20049;-62
2021/07/24 02:08:19;;;;;;;27.98;18.05;;;13.40;99.90;;;;;;5051432;28;20051;-62
2021/07/24 02:10:46;;;;;;;25.35;16.75;;;13.40;99.90;;;;;;5051583;28;20037;-62
2021/07/24 02:13:12;;;;;;;21.10;16.00;;;13.40;99.90;;;;;;5071032;28;20086;-62
2021/07/24 02:15:39;;;;;;;27.92;16.95;;;13.40;99.90;;;;;;5071503;28;20048;-62
2021/07/24 02:18:05;;;;;;;25.63;16.77;;;13.40;99.90;;;;;;5070856;28;20033;-62
2021/07/24 02:20:31;;;;;;;26.83;18.20;;;13.40;99.90;;;;;;5070477;28;20085;-62
2021/07/24 02:22:58;;;;;;;22.20;16.17;;;13.30;99.90;;;;;;5071252;28;20067;-62
2021/07/24 02:25:24;;;;;;;22.15;17.50;;;13.30;99.90;;;;;;5071511;28;20043;-62
2021/07/24 02:27:51;;;;;;;23.65;17.38;;;13.30;99.90;;;;;;5071232;28;20134;-62
2021/07/24 02:30:17;;;;;;;23.90;16.35;;;13.30;99.90;;;;;;5071403;28;20037;-62
2021/07/24 02:32:44;;;;;;;21.52;16.35;;;13.30;99.90;;;;;;5071093;28;20051;-62
2021/07/24 02:35:11;;;;;;;20.35;15.30;;;13.30;99.90;;;;;;5071223;28;20055;-62
2021/07/24 02:37:36;;;;;;;21.17;16.05;;;13.30;99.90;;;;;;5070132;28;20048;-62
2021/07/24 02:40:04;;;;;;;24.83;17.65;;;13.30;99.90;;;;;;5071154;28;20105;-62
2021/07/24 02:42:31;;;;;;;23.55;16.67;;;13.30;99.90;;;;;;5053006;28;20116;-62
2021/07/24 02:44:56;;;;;;;19.52;14.43;;;13.40;99.90;;;;;;5071012;28;20408;-62
2021/07/24 02:47:22;;;;;;;24.70;16.25;;;13.40;99.90;;;;;;5070918;28;20032;-62
2021/07/24 02:49:47;;;;;;;19.13;15.40;;;13.40;99.90;;;;;;5071131;28;20051;-62
2021/07/24 02:52:13;;;;;;;20.17;15.65;;;13.40;99.90;;;;;;5070990;28;20116;-62
2021/07/24 02:54:39;;;;;;;23.05;16.10;;;13.30;99.90;;;;;;5070007;28;20037;-62
2021/07/24 02:57:05;;;;;;;22.75;16.08;;;13.40;99.90;;;;;;5070862;28;20042;-62
2021/07/24 02:59:31;;;;;;;20.75;15.27;;;13.30;99.90;;;;;;5053084;28;20049;-62
2021/07/24 03:01:57;;;;;;;19.55;14.13;;;13.30;99.90;;;;;;5053155;28;20041;-62
2021/07/24 03:04:23;;;;;;;20.35;14.60;;;13.30;99.90;;;;;;5070854;28;20059;-62
2021/07/24 03:06:49;;;;;;;20.33;14.18;;;13.20;99.90;;;;;;5070676;28;20044;-62
2021/07/24 03:09:15;;;;;;;21.50;15.27;;;13.20;99.90;;;;;;5069463;28;20036;-62
2021/07/24 03:11:41;;;;;;;19.90;14.82;;;13.20;99.90;;;;;;5070347;28;20142;-62
2021/07/24 03:14:07;;;;;;;23.80;16.52;;;13.20;99.90;;;;;;5070871;28;20087;-62
2021/07/24 03:16:33;;;;;;;21.35;15.07;;;13.20;99.90;;;;;;5070729;28;20123;-62
2021/07/24 03:18:59;;;;;;;20.33;15.88;;;13.20;99.90;;;;;;5074038;28;20450;-62
2021/07/24 03:21:25;;;;;;;26.88;17.55;;;13.20;99.90;;;;;;5074554;28;20033;-62
2021/07/24 03:23:51;;;;;;;26.35;17.52;;;13.10;99.90;;;;;;5074818;28;20455;-62
2021/07/24 03:26:18;;;;;;;24.10;17.23;;;13.10;99.90;;;;;;5074616;28;20068;-62
2021/07/24 03:28:44;;;;;;;23.63;16.52;;;13.10;99.90;;;;;;5072729;28;20094;-62
2021/07/24 03:31:09;;;;;;;22.88;16.70;;;13.10;99.90;;;;;;5074366;28;20402;-62
2021/07/24 03:33:35;;;;;;;27.85;17.63;;;13.10;99.90;;;;;;5074202;28;20037;-62
2021/07/24 03:36:01;;;;;;;26.58;18.23;;;13.10;99.90;;;;;;5072181;28;20428;-62
2021/07/24 03:38:27;;;;;;;21.33;14.68;;;13.10;99.90;;;;;;5073999;28;20482;-62
2021/07/24 03:40:53;;;;;;;26.48;17.55;;;13.10;99.90;;;;;;5056106;28;20044;-62
2021/07/24 03:43:19;;;;;;;26.52;17.73;;;13.10;99.90;;;;;;5073849;28;20041;-62
2021/07/24 03:45:45;;;;;;;24.00;16.10;;;13.10;99.90;;;;;;5073374;28;20385;-62
2021/07/24 03:48:10;;;;;;;24.85;17.85;;;13.10;99.90;;;;;;5073444;28;20123;-62
2021/07/24 03:50:36;;;;;;;25.02;16.85;;;13.10;99.90;;;;;;5072869;28;20674;-62
2021/07/24 03:53:02;;;;;;;26.70;17.27;;;13.20;99.90;;;;;;5065586;28;20521;-62
2021/07/24 03:55:28;;;;;;;24.45;16.98;;;13.20;99.90;;;;;;5069357;28;20048;-62
2021/07/24 03:57:56;;;;;;;26.30;17.23;;;13.20;99.90;;;;;;5073790;28;20044;-62
2021/07/24 04:00:23;;;;;;;24.92;16.17;;;13.20;99.90;;;;;;5073444;28;20086;-62
2021/07/24 04:02:49;;;;;;;27.73;16.80;;;13.20;99.90;;;;;;5055612;28;20043;-62
2021/07/24 04:05:15;;;;;;;26.33;17.75;;;13.30;99.90;;;;;;5073672;28;20044;-62
2021/07/24 04:07:42;;;;;;;23.88;16.83;;;13.30;99.90;;;;;;5073415;28;20037;-62
2021/07/24 04:10:10;;;;;;;26.33;17.05;;;13.30;99.90;;;;;;5052897;28;20040;-62
2021/07/24 04:12:37;;;;;;;25.60;18.40;;;13.30;99.90;;;;;;5062063;28;20037;-62
2021/07/24 04:15:04;;;;;;;28.55;17.05;;;13.40;99.90;;;;;;5068217;28;20037;-62
2021/07/24 04:17:30;;;;;;;22.08;16.02;;;13.40;99.90;;;;;;5072530;28;20068;-62
2021/07/24 04:19:56;;;;;;;24.40;16.80;;;13.40;99.90;;;;;;5072788;28;20063;-64
2021/07/24 04:22:22;;;;;;;26.92;18.02;;;13.50;99.90;;;;;;5072656;28;20036;-62
2021/07/24 04:24:48;;;;;;;24.50;16.90;;;13.40;99.90;;;;;;5072507;28;20058;-62
2021/07/24 04:27:14;;;;;;;25.63;17.73;;;13.50;99.90;;;;;;5072709;28;20099;-62
2021/07/24 04:29:40;;;;;;;25.15;17.58;;;13.60;99.90;;;;;;5067479;28;20500;-62
2021/07/24 04:32:06;;;;;;;25.10;17.15;;;13.60;99.90;;;;;;5072271;28;20045;-62
2021/07/24 04:34:32;;;;;;;26.05;17.77;;;13.60;99.90;;;;;;5072078;28;20040;-62
2021/07/24 04:36:58;;;;;;;25.13;16.95;;;13.70;99.90;;;;;;5072188;28;20033;-62
2021/07/24 04:39:23;;;;;;;25.05;18.13;;;13.70;99.90;;;;;;5072452;28;20047;-62
2021/07/24 04:41:49;;;;;;;26.63;18.00;;;13.80;99.90;;;;;;5071652;28;20040;-62
2021/07/24 04:44:15;;;;;;;22.35;16.92;;;13.90;99.90;;;;;;5072174;28;20119;-62
2021/07/24 04:46:41;;;;;;;26.27;18.33;;;13.90;99.90;;;;;;5070715;28;20378;-62
2021/07/24 04:49:07;;;;;;;24.25;16.67;;;14.00;99.90;;;;;;5065696;28;20063;-62
2021/07/24 04:51:33;;;;;;;23.95;16.63;;;14.10;99.90;;;;;;5072231;28;20078;-62
2021/07/24 04:54:02;;;;;;;21.15;15.63;;;14.20;99.90;;;;;;5071496;28;20521;-62
2021/07/24 04:56:28;;;;;;;23.77;16.42;;;14.20;99.90;;;;;;5071882;28;20041;-62
2021/07/24 04:58:54;;;;;;;24.90;17.52;;;14.40;99.90;;;;;;5071963;28;20439;-62
2021/07/24 05:01:20;;;;;;;21.23;15.60;;;14.50;99.90;;;;;;5071596;28;20044;-62
2021/07/24 05:03:46;;;;;;;20.48;14.68;;;14.60;99.90;;;;;;5071958;28;20492;-62
2021/07/24 05:06:11;;;;;;;20.08;14.80;;;14.60;99.90;;;;;;5059710;28;20414;-63
2021/07/24 05:08:37;;;;;;;24.15;16.27;;;14.70;99.90;;;;;;5072353;28;20044;-62
2021/07/24 05:11:03;;;;;;;21.77;15.60;;;14.80;99.90;;;;;;5072137;28;20040;-62
2021/07/24 05:13:30;;;;;;;24.60;17.00;;;14.90;99.90;;;;;;5072133;28;20520;-62
2021/07/24 05:15:56;;;;;;;18.77;13.82;;;15.00;99.90;;;;;;5072398;28;20047;-62
2021/07/24 05:18:22;;;;;;;20.63;14.80;;;15.00;99.90;;;;;;5067449;28;20586;-62
2021/07/24 05:20:47;;;;;;;19.35;14.95;;;15.10;99.90;;;;;;5070784;28;20111;-62
2021/07/24 05:23:14;;;;;;;18.67;14.77;;;15.20;99.90;;;;;;5072191;28;20086;-62
2021/07/24 05:25:40;;;;;;;16.40;12.63;;;15.20;99.90;;;;;;5071392;28;20485;-62
2021/07/24 05:28:06;;;;;;;20.98;15.27;;;15.30;99.90;;;;;;5057100;28;20040;-62
2021/07/24 05:30:32;;;;;;;18.30;15.27;;;15.30;99.90;;;;;;5052143;28;20036;-62
2021/07/24 05:32:57;;;;;;;18.05;13.60;;;15.40;99.90;;;;;;5051759;28;20041;-62
2021/07/24 05:35:23;;;;;;;18.98;14.50;;;15.40;99.90;;;;;;5067266;28;20076;-62
2021/07/24 05:37:50;;;;;;;17.50;14.38;;;15.40;99.90;;;;;;5067873;28;20063;-62
2021/07/24 05:40:16;;;;;;;19.27;14.25;;;15.50;99.90;;;;;;5071890;28;20076;-62
2021/07/24 05:42:42;;;;;;;16.50;13.68;;;15.60;99.90;;;;;;5071600;28;20048;-62
2021/07/24 05:45:08;;;;;;;19.42;14.88;;;15.70;99.90;;;;;;5071417;28;20094;-62
2021/07/24 05:47:34;;;;;;;18.58;13.95;;;15.90;99.90;;;;;;5071541;28;20039;-62
2021/07/24 05:50:02;;;;;;;19.13;13.77;;;16.00;99.90;;;;;;5071486;28;20444;-62
2021/07/24 05:52:27;;;;;;;18.85;14.25;;;16.10;99.90;;;;;;5071788;28;20041;-62
2021/07/24 05:54:53;;;;;;;18.30;13.15;;;16.10;99.90;;;;;;5071502;28;20040;-62
2021/07/24 05:57:19;;;;;;;15.98;13.00;;;16.30;99.90;;;;;;5070361;28;20116;-62
2021/07/24 05:59:45;;;;;;;15.93;13.98;;;16.50;99.90;;;;;;5058523;28;20037;-62
2021/07/24 06:02:11;;;;;;;14.60;13.10;;;17.40;99.90;;;;;;5063117;28;20140;-62
2021/07/24 06:04:39;;;;;;;14.40;12.60;;;18.70;99.90;;;;;;5063953;28;20041;-62
2021/07/24 06:07:05;;;;;;;14.50;12.35;;;19.90;99.90;;;;;;5071242;28;20369;-62
2021/07/24 06:09:31;;;;;;;13.63;12.05;;;20.90;99.90;;;;;;5071307;28;20127;-62
2021/07/24 06:11:57;;;;;;;14.05;11.43;;;21.40;99.90;;;;;;5071200;28;20032;-62
2021/07/24 06:14:24;;;;;;;14.98;11.77;;;21.80;99.80;;;;;;5070101;28;20064;-62
2021/07/24 06:16:50;;;;;;;11.80;10.60;;;22.50;98.40;;;;;;5066479;28;20123;-62
2021/07/24 06:19:16;;;;;;;12.00;10.73;;;23.20;96.20;;;;;;5071245;28;20040;-62
2021/07/24 06:21:42;;;;;;;11.63;10.40;;;23.30;96.00;;;;;;5069735;28;20028;-62
2021/07/24 06:24:07;;;;;;;12.90;11.00;;;23.80;95.60;;;;;;5053252;28;20047;-63
2021/07/24 06:26:37;;;;;;;13.68;10.25;;;24.20;94.20;;;;;;5052759;28;20047;-62
2021/07/24 06:29:04;;;;;;;11.32;10.23;;;23.90;92.90;;;;;;5071254;28;20067;-62
2021/07/24 06:31:29;;;;;;;14.30;10.80;;;24.00;94.10;;;;;;5070803;28;20056;-62
2021/07/24 06:33:55;;;;;;;10.75;9.75;;;24.40;93.40;;;;;;5071248;28;20358;-62
2021/07/24 06:36:21;;;;;;;11.23;10.13;;;24.70;93.30;;;;;;5068434;28;20048;-62
2021/07/24 06:38:46;;;;;;;12.13;10.32;;;24.70;93.50;;;;;;5067648;28;20040;-62
2021/07/24 06:41:12;;;;;;;10.63;9.35;;;24.80;91.90;;;;;;5071156;28;20036;-62
2021/07/24 06:43:38;;;;;;;11.52;10.25;;;25.10;92.00;;;;;;5057673;28;20055;-62
2021/07/24 06:46:11;;;;;;;12.07;10.48;;;25.40;92.10;;;;;;5076712;23;20128;-63
2021/07/24 06:48:37;;;;;;;19.90;9.82;;;25.50;91.60;;;;;;5071631;28;20039;-63
2021/07/24 06:51:07;;;;;;;10.93;9.82;;;25.90;91.60;;;;;;5087886;28;20426;-62
2021/07/24 06:53:34;;;;;;;14.07;10.68;;;26.10;88.90;;;;;;5092771;28;20440;-63
2021/07/24 06:56:01;;;;;;;11.60;10.07;;;25.80;90.00;;;;;;5079575;28;20036;-63
2021/07/24 06:58:27;;;;;;;11.40;10.07;;;25.50;90.40;;;;;;5092996;28;20066;-63
2021/07/24 07:00:52;;;;;;;9.88;8.93;;;25.80;90.00;;;;;;5094321;28;20028;-63
2021/07/24 07:03:18;;;;;;;10.98;9.85;;;26.30;88.40;;;;;;5093556;28;20036;-63
2021/07/24 07:05:44;;;;;;;10.25;9.25;;;25.90;87.50;;;;;;5074854;28;20481;-63
2021/07/24 07:08:09;;;;;;;10.80;9.70;;;26.50;88.60;;;;;;5110561;28;20042;-63
2021/07/24 07:10:35;;;;;;;11.10;9.98;;;26.80;85.20;;;;;;5111632;28;20781;-63
2021/07/24 07:13:01;;;;;;;12.63;8.85;;;27.10;85.00;;;;;;5094846;28;20043;-63
2021/07/24 07:15:28;;;;;;;10.10;9.30;;;27.10;84.40;;;;;;5086652;28;20104;-62
2021/07/24 07:17:55;;;;;;;9.90;8.70;;;27.30;81.70;;;;;;5115541;28;20040;-63
2021/07/24 07:20:21;;;;;;;12.18;8.88;;;27.10;81.10;;;;;;5115095;28;20035;-63
2021/07/24 07:22:47;;;;;;;8.88;7.68;;;27.60;80.00;;;;;;5084535;28;20066;-63
2021/07/24 07:25:13;;;;;;;10.48;8.60;;;27.40;79.90;;;;;;5088896;28;20097;-63
2021/07/24 07:27:43;;;;;;;9.30;8.32;;;27.60;79.40;;;;;;5090392;28;20047;-63
2021/07/24 07:30:10;;;;;;;9.38;8.48;;;27.50;79.00;;;;;;5091790;28;20028;-63
2021/07/24 07:32:36;;;;;;;8.15;7.35;;;27.40;78.40;;;;;;5094971;28;20047;-62
2021/07/24 07:35:03;;;;;;;9.05;7.85;;;27.60;78.30;;;;;;5092783;28;20056;-62
2021/07/24 07:37:29;;;;;;;10.05;8.25;;;27.40;78.40;;;;;;5093732;28;20041;-62
2021/07/24 07:39:54;;;;;;;7.75;7.03;;;27.60;76.70;;;;;;5091870;28;20377;-63
2021/07/24 07:42:20;;;;;;;8.55;7.75;;;27.80;78.20;;;;;;5083913;28;20037;-63
2021/07/24 07:44:47;;;;;;;7.68;6.88;;;27.70;77.50;;;;;;5081423;28;20427;-63
2021/07/24 07:47:12;;;;;;;8.70;7.80;;;27.70;77.90;;;;;;5093564;28;20048;-63
2021/07/24 07:49:39;;;;;;;8.93;8.10;;;28.00;76.80;;;;;;5077367;28;20097;-62
2021/07/24 07:52:06;;;;;;;8.65;7.85;;;27.90;75.70;;;;;;5093140;28;20545;-62
2021/07/24 07:54:33;;;;;;;8.63;7.78;;;27.90;74.90;;;;;;5091863;28;20039;-62
2021/07/24 07:57:02;;;;;;;8.52;7.55;;;27.20;78.20;;;;;;5073873;28;20046;-63
2021/07/24 07:59:28;;;;;;;8.60;7.75;;;27.70;78.40;;;;;;5074549;28;20382;-63
2021/07/24 08:01:54;;;;;;;7.75;6.97;;;28.30;79.60;;;;;;5078029;28;20044;-63
2021/07/24 08:04:20;;;;;;;8.00;7.15;;;27.70;75.50;;;;;;5093951;28;20460;-63
2021/07/24 08:06:46;;;;;;;7.80;7.10;;;27.30;78.40;;;;;;5092590;28;20040;-63
2021/07/24 08:09:11;;;;;;;8.00;7.20;;;27.10;77.90;;;;;;5073824;28;20083;-63
2021/07/24 08:11:37;;;;;;;8.15;7.30;;;26.70;79.40;;;;;;5083713;28;20060;-63
2021/07/24 08:14:03;;;;;;;9.35;7.47;;;26.20;81.50;;;;;;5093530;28;20042;-63
2021/07/24 08:16:29;;;;;;;9.52;7.00;;;25.50;84.40;;;;;;5092887;28;20484;-63
2021/07/24 08:18:55;;;;;;;8.93;7.50;;;24.50;88.50;;;;;;5085069;28;20077;-63
2021/07/24 08:21:20;;;;;;;8.50;7.50;;;24.20;90.70;;;;;;5085036;28;20512;-62
2021/07/24 08:23:46;;;;;;;9.10;7.68;;;23.70;90.80;;;;;;5075477;28;20064;-62
2021/07/24 08:26:12;;;;;;;8.30;7.50;;;23.40;91.80;;;;;;5076955;28;20115;-62
2021/07/24 08:28:38;;;;;;;11.18;8.27;;;23.30;92.80;;;;;;5073435;28;20044;-63
2021/07/24 08:31:03;;;;;;;8.93;8.02;;;23.30;93.20;;;;;;5099660;28;20039;-63
2021/07/24 08:33:29;;;;;;;9.95;7.70;;;23.20;93.80;;;;;;5093050;28;20063;-63
2021/07/24 08:35:55;;;;;;;8.23;7.38;;;23.40;93.30;;;;;;5084761;28;20035;-63
2021/07/24 08:38:21;;;;;;;8.85;7.70;;;23.40;93.20;;;;;;5092856;28;20089;-63
2021/07/24 08:40:48;;;;;;;9.10;8.20;;;23.40;93.70;;;;;;5092109;28;20189;-63
2021/07/24 08:43:14;;;;;;;9.55;7.53;;;23.30;94.30;;;;;;5085747;28;21481;-63
2021/07/24 08:45:41;;;;;;;10.18;7.75;;;23.40;93.60;;;;;;5081097;28;20056;-63
2021/07/24 08:48:07;;;;;;;10.68;7.78;;;23.40;93.70;;;;;;5089643;28;20048;-63
2021/07/24 08:50:34;;;;;;;10.25;7.72;;;23.50;93.40;;;;;;5090969;28;20047;-64
2021/07/24 08:53:07;;;;;;;9.90;7.97;;;23.50;93.80;;;;;;5087317;28;20534;-63
2021/07/24 08:55:34;;;;;;;11.25;8.32;;;23.50;94.10;;;;;;5088504;28;20043;-63
2021/07/24 08:58:01;;;;;;;8.95;7.85;;;23.60;94.70;;;;;;5089192;28;20150;-63
2021/07/24 09:00:27;;;;;;;9.35;7.85;;;23.50;93.80;;;;;;5090267;28;20036;-63
2021/07/24 09:02:57;;;;;;;9.82;7.68;;;23.50;94.50;;;;;;5091798;28;20044;-63
2021/07/24 09:05:23;;;;;;;9.45;7.50;;;23.50;94.60;;;;;;5073668;28;20413;-63
2021/07/24 09:07:51;;;;;;;8.40;7.28;;;23.70;93.80;;;;;;5092283;28;20032;-63
2021/07/24 09:10:18;;;;;;;9.02;7.72;;;23.80;93.40;;;;;;5086806;28;20032;-63
2021/07/24 09:12:49;;;;;;;8.80;7.90;;;23.80;93.70;;;;;;5071073;28;20036;-63
2021/07/24 09:15:17;;;;;;;8.48;7.45;;;23.80;93.60;;;;;;5091595;28;20488;-62
2021/07/24 09:17:43;;;;;;;9.50;7.70;;;23.80;93.60;;;;;;5077127;28;20076;-62
2021/07/24 09:20:10;;;;;;;10.32;7.93;;;24.00;93.20;;;;;;5091881;28;20040;-62
2021/07/24 09:22:40;;;;;;;8.57;7.72;;;24.00;93.40;;;;;;5091895;28;20465;-63
2021/07/24 09:25:13;;;;;;;8.82;7.90;;;23.90;93.80;;;;;;5091202;28;20043;-62
2021/07/24 09:27:47;;;;;;;10.30;9.30;;;24.00;93.20;;;;;;5089076;28;20059;-63
2021/07/24 09:30:24;;;;;;;11.38;9.02;;;24.00;93.90;;;;;;5083220;28;20046;-62
2021/07/24 09:33:16;;;;;;;9.20;8.38;;;24.10;93.50;;;;;;5077387;28;20036;-62
2021/07/24 09:35:42;;;;;;;;;;;24.10;94.20;;;;;;5083168;28;20043;-63
2021/07/24 09:38:27;;;;;;;10.15;9.05;;;24.10;94.50;;;;;;5088504;28;19919;-62
2021/07/24 09:40:54;;;;;;;9.48;8.40;;;24.20;93.30;;;;;;5089085;28;20408;-62
2021/07/24 09:43:35;;;;;;;11.18;8.18;;;24.40;92.90;;;;;;5074209;28;20041;-62
2021/07/24 09:46:21;;;;;;;10.73;9.30;;;24.50;93.00;;;;;;5105472;28;20093;-63
2021/07/24 09:48:49;;;;;;;9.95;8.95;;;24.40;93.70;;;;;;5081127;28;20032;-62
2021/07/24 09:51:37;;;;;;;10.70;9.23;;;24.50;93.30;;;;;;5088845;28;20396;-63
2021/07/24 09:54:04;;;;;;;9.98;8.68;;;24.50;93.40;;;;;;5084728;28;20047;-62
2021/07/24 09:56:40;;;;;;;10.20;9.18;;;24.50;93.60;;;;;;5082685;28;20072;-62
2021/07/24 09:59:23;;;;;;;10.32;9.23;;;24.40;93.20;;;;;;5091644;28;20058;-62
2021/07/24 10:02:13;;;;;;;9.70;8.70;;;24.40;93.30;;;;;;5087691;28;20040;-63
2021/07/24 10:04:40;;;;;;;12.57;8.60;;;24.50;93.20;;;;;;5091213;28;20040;-62
2021/07/24 10:07:08;;;;;;;10.57;9.48;;;24.50;93.50;;;;;;5090857;28;20032;-62
2021/07/24 10:09:40;;;;;;;10.65;9.25;;;24.40;93.50;;;;;;5090733;28;20115;-62
2021/07/24 10:12:15;;;;;;;10.50;9.18;;;24.50;93.40;;;;;;5091676;28;20040;-62
2021/07/24 10:14:42;;;;;;;11.43;8.63;;;24.40;93.50;;;;;;5090863;28;20381;-62
2021/07/24 10:17:08;;;;;;;11.23;9.05;;;24.50;93.40;;;;;;5091336;28;20396;-62
2021/07/24 10:19:33;;;;;;;9.50;8.60;;;24.40;93.50;;;;;;5072812;28;20118;-62
2021/07/24 10:22:01;;;;;;;10.00;8.05;;;24.50;93.20;;;;;;5087013;28;20038;-62
2021/07/24 10:24:27;;;;;;;8.95;8.02;;;24.50;93.50;;;;;;5081685;28;20106;-62
2021/07/24 10:27:09;;;;;;;10.48;8.25;;;24.70;92.90;;;;;;5082019;28;20036;-62
2021/07/24 10:29:36;;;;;;;;;;;24.90;92.90;;;;;;5091099;28;20032;-62
2021/07/24 10:32:13;;;;;;;9.75;8.20;;;24.80;93.40;;;;;;5072894;28;20011;-63
2021/07/24 10:34:50;;;;;;;8.77;7.70;;;24.80;92.70;;;;;;5085874;28;20036;-63
2021/07/24 10:37:35;;;;;;;11.55;8.52;;;24.90;92.60;;;;;;5072904;28;20563;-63
2021/07/24 10:40:16;;;;;;;9.70;7.93;;;25.10;92.60;;;;;;5091035;28;20115;-63
2021/07/24 10:42:44;;;;;;;11.15;9.45;;;25.10;92.50;;;;;;5090464;28;20047;-63
2021/07/24 10:45:37;;;;;;;10.75;8.05;;;24.80;92.90;;;;;;5091029;28;20089;-63
2021/07/24 10:48:15;;;;;;;10.82;7.85;;;25.10;93.10;;;;;;5090581;28;20044;-63
2021/07/24 10:50:53;;;;;;;10.85;7.43;;;25.40;92.60;;;;;;5090085;28;20030;-64
2021/07/24 10:53:21;;;;;;;8.63;7.65;;;25.70;91.30;;;;;;5089930;28;20063;-63
2021/07/24 10:55:48;;;;;;;8.15;7.35;;;25.90;91.40;;;;;;5078933;28;20119;-62
2021/07/24 10:58:15;;;;;;;9.88;8.15;;;26.10;90.80;;;;;;5083838;28;20369;-62
2021/07/24 11:00:51;;;;;;;10.13;8.43;;;26.30;90.30;;;;;;5090778;28;20118;-63
2021/07/24 11:03:40;;;;;;;8.85;7.90;;;26.20;90.00;;;;;;5090935;28;20112;-63
2021/07/24 11:06:26;;;;;;;7.88;7.10;;;26.10;90.40;;;;;;5091046;28;20036;-63
2021/07/24 11:09:02;;;;;;;8.85;7.95;;;26.40;89.80;;;;;;5077551;28;20238;-63
2021/07/24 11:11:59;;;;;;;8.60;7.65;;;26.40;90.00;;;;;;5070900;28;20047;-62
2021/07/24 11:14:36;;;;;;;9.52;8.50;;;26.30;91.00;;;;;;5070668;28;20119;-62
2021/07/24 11:17:05;;;;;;;10.52;8.40;;;26.40;89.60;;;;;;5070904;28;20128;-63
2021/07/24 11:19:31;;;;;;;10.68;8.15;;;26.70;88.40;;;;;;5070885;28;20423;-63
2021/07/24 11:22:17;;;;;;;9.02;7.25;;;26.60;88.10;;;;;;5071046;28;20047;-63
2021/07/24 11:24:50;;;;;;;8.88;7.97;;;26.60;88.70;;;;;;5070609;28;20070;-63
2021/07/24 11:27:23;;;;;;;14.75;8.48;;;26.60;88.50;;;;;;5087646;28;20040;-63
2021/07/24 11:29:49;;;;;;;8.20;7.40;;;26.40;90.00;;;;;;5090682;28;20051;-63
2021/07/24 11:32:15;;;;;;;8.75;7.25;;;26.70;88.10;;;;;;5090788;28;20032;-63
2021/07/24 11:34:43;;;;;;;9.45;7.93;;;26.40;89.20;;;;;;5090635;28;20036;-63
2021/07/24 11:37:09;;;;;;;7.72;6.88;;;26.40;90.10;;;;;;5090825;28;20048;-63
2021/07/24 11:39:34;;;;;;;8.07;7.38;;;26.50;90.60;;;;;;5093071;28;20036;-63
2021/07/24 11:42:00;;;;;;;9.25;7.68;;;26.60;89.30;;;;;;5085299;28;20370;-62
2021/07/24 11:44:30;;;;;;;8.45;7.53;;;26.70;88.70;;;;;;5074253;28;20075;-62
2021/07/24 11:46:56;;;;;;;8.65;7.75;;;26.70;88.10;;;;;;5073999;28;20050;-63
2021/07/24 11:49:22;;;;;;;9.07;7.53;;;26.50;89.50;;;;;;5073799;28;20502;-63
2021/07/24 11:51:48;;;;;;;8.40;7.60;;;26.60;89.40;;;;;;5073867;28;20066;-63
2021/07/24 11:54:13;;;;;;;8.55;7.68;;;26.70;88.10;;;;;;5073637;28;20085;-63
2021/07/24 11:56:40;;;;;;;10.88;8.55;;;26.60;89.00;;;;;;5072949;28;20040;-63
2021/07/24 11:59:06;;;;;;;10.77;8.63;;;26.40;90.00;;;;;;5073881;28;20068;-63
2021/07/24 12:01:31;;;;;;;7.53;6.78;;;26.20;89.90;;;;;;5073965;28;20071;-62
2021/07/24 12:04:05;;;;;;;10.82;8.70;;;26.50;88.80;;;;;;5073757;28;20068;-63
2021/07/24 12:06:33;;;;;;;10.30;8.10;;;26.70;88.40;;;;;;5073832;28;20120;-63
2021/07/24 12:08:59;;;;;;;8.10;7.30;;;26.80;88.80;;;;;;5073701;28;20513;-62
2021/07/24 12:11:25;;;;;;;8.95;8.05;;;26.90;87.70;;;;;;5073653;28;20036;-62
2021/07/24 12:14:05;;;;;;;8.68;7.78;;;27.00;87.50;;;;;;5073463;28;20032;-63
2021/07/24 12:16:41;;;;;;;8.98;7.65;;;27.00;89.70;;;;;;5082679;28;20040;-63
2021/07/24 12:19:12;;;;;;;7.72;6.97;;;27.10;88.30;;;;;;5092425;28;20453;-63
2021/07/24 12:21:38;;;;;;;9.35;8.20;;;27.20;86.10;;;;;;5091789;28;20039;-63
2021/07/24 12:24:05;;;;;;;10.75;8.52;;;27.10;87.00;;;;;;5089643;28;20032;-63
2021/07/24 12:26:32;;;;;;;10.73;8.32;;;27.10;87.10;;;;;;5091850;28;20039;-63
2021/07/24 12:28:59;;;;;;;8.45;7.60;;;27.10;87.90;;;;;;5076045;28;20119;-62
2021/07/24 12:31:30;;;;;;;10.30;7.78;;;27.20;86.60;;;;;;5076613;28;20127;-63
2021/07/24 12:34:01;;;;;;;8.73;7.43;;;27.30;86.60;;;;;;5073126;28;20036;-63
2021/07/24 12:36:28;;;;;;;9.10;8.20;;;27.40;87.10;;;;;;5073616;28;20120;-63
2021/07/24 12:38:58;;;;;;;9.35;8.45;;;27.30;87.60;;;;;;5072973;28;20043;-63
2021/07/24 12:41:31;;;;;;;8.40;7.47;;;27.20;87.10;;;;;;5078007;28;20039;-63
2021/07/24 12:44:03;;;;;;;11.85;8.65;;;27.20;87.50;;;;;;5079037;28;20128;-63